createdAt,value
2017-10-04T00:01:34.292Z,12.00
2017-10-04T00:04:01.757Z,12.00
2017-10-04T00:06:30.013Z,12.10
2017-10-04T00:08:57.464Z,12.00
2017-10-04T00:11:26.445Z,12.10
2017-10-04T00:13:53.970Z,12.10
2017-10-04T00:16:21.584Z,12.10
2017-10-04T00:18:49.045Z,12.00
2017-10-04T00:21:16.604Z,12.00
2017-10-04T00:23:44.069Z,12.00
2017-10-04T00:26:11.544Z,12.00
2017-10-04T00:28:39.781Z,11.90
2017-10-04T00:31:07.254Z,11.90
2017-10-04T00:33:34.834Z,11.90
2017-10-04T00:36:03.180Z,11.90
2017-10-04T00:38:30.643Z,11.90
2017-10-04T00:40:58.125Z,11.90
2017-10-04T00:43:26.351Z,11.90
2017-10-04T00:45:53.825Z,11.90
2017-10-04T00:48:22.449Z,11.90
2017-10-04T00:50:49.930Z,11.90
2017-10-04T00:53:17.401Z,11.90
2017-10-04T00:55:44.877Z,11.90
2017-10-04T00:58:12.345Z,11.90
2017-10-04T01:00:39.813Z,11.90
2017-10-04T01:03:08.037Z,11.90
2017-10-04T01:05:35.512Z,11.90
2017-10-04T01:08:03.024Z,11.90
2017-10-04T01:10:31.242Z,11.80
2017-10-04T01:12:58.736Z,11.80
2017-10-04T01:15:26.973Z,11.80
2017-10-04T01:17:54.446Z,11.70
2017-10-04T01:20:21.908Z,11.80
2017-10-04T01:22:49.384Z,11.70
2017-10-04T01:25:17.608Z,11.70
2017-10-04T01:27:45.101Z,11.70
2017-10-04T01:30:12.568Z,11.80
2017-10-04T01:32:40.040Z,11.80
2017-10-04T01:35:08.260Z,11.90
2017-10-04T01:37:35.730Z,11.90
2017-10-04T01:40:03.357Z,11.90
2017-10-04T01:42:30.940Z,11.90
2017-10-04T01:44:58.485Z,11.90
2017-10-04T01:47:25.961Z,11.90
2017-10-04T01:49:53.518Z,11.90
2017-10-04T01:52:20.988Z,11.90
2017-10-04T01:54:48.457Z,11.90
2017-10-04T01:57:15.937Z,11.80
2017-10-04T01:59:44.273Z,11.80
2017-10-04T02:02:11.809Z,11.80
2017-10-04T02:04:39.260Z,11.80
2017-10-04T02:07:06.848Z,11.80
2017-10-04T02:09:34.317Z,11.80
2017-10-04T02:12:01.822Z,11.80
2017-10-04T02:14:29.293Z,11.80
2017-10-04T02:16:56.754Z,11.80
2017-10-04T02:19:24.240Z,11.80
2017-10-04T02:21:51.710Z,11.80
2017-10-04T02:24:19.953Z,11.80
2017-10-04T02:26:47.589Z,11.80
2017-10-04T02:29:15.153Z,11.80
2017-10-04T02:31:42.627Z,11.80
2017-10-04T02:34:10.089Z,11.80
2017-10-04T02:36:37.578Z,11.80
2017-10-04T02:39:05.798Z,11.80
2017-10-04T02:41:33.277Z,11.80
2017-10-04T02:44:00.913Z,11.80
2017-10-04T02:46:28.422Z,11.80
2017-10-04T02:48:56.677Z,11.80
2017-10-04T02:51:24.152Z,11.70
2017-10-04T02:53:51.618Z,11.80
2017-10-04T02:56:19.949Z,11.80
2017-10-04T02:58:47.512Z,11.80
2017-10-04T03:01:15.057Z,11.70
2017-10-04T03:03:42.552Z,11.70
2017-10-04T03:06:10.022Z,11.70
2017-10-04T03:08:38.348Z,11.70
2017-10-04T03:11:05.805Z,11.70
2017-10-04T03:13:33.288Z,11.70
2017-10-04T03:16:00.741Z,11.60
2017-10-04T03:18:28.209Z,11.60
2017-10-04T03:20:55.677Z,11.70
2017-10-04T03:23:23.143Z,11.70
2017-10-04T03:25:51.374Z,11.70
2017-10-04T03:28:18.863Z,11.70
2017-10-04T03:30:46.320Z,11.70
2017-10-04T03:33:13.781Z,11.70
2017-10-04T03:35:41.313Z,11.70
2017-10-04T03:38:08.799Z,11.70
2017-10-04T03:40:36.261Z,11.70
2017-10-04T03:43:04.483Z,11.70
2017-10-04T03:45:31.965Z,11.70
2017-10-04T03:47:59.428Z,11.70
2017-10-04T03:50:26.904Z,11.70
2017-10-04T03:52:55.133Z,11.60
2017-10-04T03:55:22.616Z,11.60
2017-10-04T03:57:50.097Z,11.60
2017-10-04T04:00:18.318Z,11.60
2017-10-04T04:02:45.789Z,11.60
2017-10-04T04:05:13.381Z,11.60
2017-10-04T04:07:40.861Z,11.60
2017-10-04T04:10:08.384Z,11.60
2017-10-04T04:12:35.850Z,11.60
2017-10-04T04:15:03.349Z,11.70
2017-10-04T04:17:30.890Z,11.60
2017-10-04T04:19:58.368Z,11.60
2017-10-04T04:22:25.930Z,11.60
2017-10-04T04:24:53.389Z,11.60
2017-10-04T04:27:20.849Z,11.60
2017-10-04T04:29:48.319Z,11.60
2017-10-04T04:32:15.868Z,11.60
2017-10-04T04:34:43.315Z,11.60
2017-10-04T04:37:10.805Z,11.60
2017-10-04T04:39:38.253Z,11.50
2017-10-04T04:42:05.718Z,11.50
2017-10-04T04:44:33.197Z,11.50
2017-10-04T04:47:00.644Z,11.60
2017-10-04T04:49:28.116Z,11.60
2017-10-04T04:51:56.341Z,11.50
2017-10-04T04:54:23.835Z,11.50
2017-10-04T04:56:51.301Z,11.50
2017-10-04T04:59:19.533Z,11.50
2017-10-04T05:01:47.002Z,11.50
2017-10-04T05:04:14.488Z,11.40
2017-10-04T05:06:42.038Z,11.40
2017-10-04T05:09:09.501Z,11.50
2017-10-04T05:11:36.982Z,11.50
2017-10-04T05:14:04.568Z,11.50
2017-10-04T05:16:32.240Z,11.40
2017-10-04T05:18:59.728Z,11.40
2017-10-04T05:21:27.297Z,11.40
2017-10-04T05:23:55.524Z,11.50
2017-10-04T05:26:22.993Z,11.50
2017-10-04T05:28:50.469Z,11.40
2017-10-04T05:31:17.960Z,11.40
2017-10-04T05:33:46.204Z,11.40
2017-10-04T05:36:13.675Z,11.40
2017-10-04T05:38:41.150Z,11.50
2017-10-04T05:41:09.376Z,11.40
2017-10-04T05:43:36.856Z,11.40
2017-10-04T05:46:04.323Z,11.40
2017-10-04T05:48:31.831Z,11.30
2017-10-04T05:50:59.298Z,11.30
2017-10-04T05:53:26.780Z,11.40
2017-10-04T05:55:54.249Z,11.30
2017-10-04T05:58:22.481Z,11.30
2017-10-04T06:00:50.045Z,11.30
2017-10-04T06:03:17.539Z,11.30
2017-10-04T06:05:45.055Z,11.30
2017-10-04T06:08:12.525Z,11.30
2017-10-04T06:10:40.119Z,11.30
2017-10-04T06:13:08.850Z,11.30
2017-10-04T06:15:36.352Z,11.30
2017-10-04T06:18:03.856Z,11.30
2017-10-04T06:20:31.339Z,11.30
2017-10-04T06:22:58.809Z,11.30
2017-10-04T06:25:26.308Z,11.30
2017-10-04T06:27:54.540Z,11.40
2017-10-04T06:30:22.022Z,11.40
2017-10-04T06:32:50.237Z,11.50
2017-10-04T06:35:17.732Z,11.40
2017-10-04T06:37:45.208Z,11.50
2017-10-04T06:40:13.464Z,11.50
2017-10-04T06:42:40.928Z,11.50
2017-10-04T06:45:08.489Z,11.50
2017-10-04T06:47:35.948Z,11.50
2017-10-04T06:50:03.429Z,11.50
2017-10-04T06:52:31.691Z,11.60
2017-10-04T06:54:59.177Z,11.60
2017-10-04T06:57:26.637Z,11.60
2017-10-04T06:59:54.102Z,11.60
2017-10-04T07:02:21.560Z,11.60
2017-10-04T07:04:49.027Z,11.70
2017-10-04T07:07:16.484Z,11.70
2017-10-04T07:09:43.957Z,11.70
2017-10-04T07:12:11.436Z,11.70
2017-10-04T07:14:40.420Z,11.70
2017-10-04T07:17:09.480Z,11.80
2017-10-04T07:19:36.942Z,11.80
2017-10-04T07:22:04.420Z,11.80
2017-10-04T07:24:31.892Z,11.80
2017-10-04T07:27:00.141Z,11.90
2017-10-04T07:29:27.598Z,11.80
2017-10-04T07:31:55.073Z,11.90
2017-10-04T07:34:22.549Z,11.90
2017-10-04T07:36:50.782Z,12.00
2017-10-04T07:39:18.281Z,11.90
2017-10-04T07:41:46.613Z,12.00
2017-10-04T07:44:14.108Z,12.00
2017-10-04T07:46:41.594Z,12.10
2017-10-04T07:49:09.048Z,12.10
2017-10-04T07:51:36.533Z,12.10
2017-10-04T07:54:04.086Z,12.20
2017-10-04T07:56:31.562Z,12.20
2017-10-04T07:58:59.033Z,12.20
2017-10-04T08:01:26.506Z,12.20
2017-10-04T08:03:53.972Z,12.30
2017-10-04T08:06:22.209Z,12.30
2017-10-04T08:08:49.668Z,12.30
2017-10-04T08:11:17.148Z,12.40
2017-10-04T08:13:44.614Z,12.50
2017-10-04T08:16:12.866Z,12.70
2017-10-04T08:18:41.036Z,12.70
2017-10-04T08:21:08.497Z,12.70
2017-10-04T08:23:35.991Z,12.70
2017-10-04T08:26:04.212Z,12.80
2017-10-04T08:28:31.685Z,12.80
2017-10-04T08:30:59.213Z,12.70
2017-10-04T08:33:26.690Z,12.70
2017-10-04T08:35:54.150Z,12.60
2017-10-04T08:38:21.609Z,12.70
2017-10-04T08:40:49.133Z,12.70
2017-10-04T08:43:16.668Z,12.70
2017-10-04T08:45:45.010Z,12.80
2017-10-04T08:48:25.840Z,12.80
2017-10-04T08:50:53.296Z,12.80
2017-10-04T08:53:20.797Z,12.90
2017-10-04T08:55:48.276Z,12.90
2017-10-04T08:58:16.509Z,13.00
2017-10-04T09:00:44.093Z,13.00
2017-10-04T09:03:12.324Z,13.10
2017-10-04T09:05:44.254Z,13.10
2017-10-04T09:08:12.484Z,13.10
2017-10-04T09:10:39.941Z,13.10
2017-10-04T09:13:07.412Z,13.20
2017-10-04T09:15:34.989Z,13.20
2017-10-04T09:18:03.289Z,13.30
2017-10-04T09:20:30.915Z,13.30
2017-10-04T09:22:58.495Z,13.40
2017-10-04T09:25:25.993Z,13.50
2017-10-04T09:27:53.449Z,13.60
2017-10-04T09:30:20.920Z,13.70
2017-10-04T09:32:48.382Z,13.70
2017-10-04T09:35:15.858Z,13.70
2017-10-04T09:37:43.316Z,13.80
2017-10-04T09:40:12.292Z,14.00
2017-10-04T09:42:39.775Z,14.00
2017-10-04T09:45:08.001Z,14.10
2017-10-04T09:47:35.468Z,14.10
2017-10-04T09:50:02.941Z,14.00
2017-10-04T09:52:30.397Z,14.10
2017-10-04T09:54:57.957Z,14.10
2017-10-04T09:57:25.543Z,14.20
2017-10-04T09:59:54.397Z,14.20
2017-10-04T10:02:21.857Z,14.20
2017-10-04T10:04:49.380Z,14.10
2017-10-04T10:07:16.830Z,14.00
2017-10-04T10:09:44.298Z,13.90
2017-10-04T10:12:11.792Z,13.90
2017-10-04T10:14:39.252Z,14.00
2017-10-04T10:17:06.716Z,13.90
2017-10-04T10:19:35.686Z,14.00
2017-10-04T10:22:03.154Z,14.00
2017-10-04T10:24:30.619Z,14.00
2017-10-04T10:26:58.153Z,14.10
2017-10-04T10:29:25.610Z,14.10
2017-10-04T10:31:53.070Z,14.20
2017-10-04T10:34:20.545Z,14.30
2017-10-04T10:36:48.058Z,14.40
2017-10-04T10:39:15.547Z,14.40
2017-10-04T10:41:42.997Z,14.50
2017-10-04T10:44:10.465Z,14.50
2017-10-04T10:46:37.924Z,14.50
2017-10-04T10:49:05.401Z,14.60
2017-10-04T10:51:33.625Z,14.40
2017-10-04T10:54:01.183Z,14.40
2017-10-04T10:56:28.656Z,14.40
2017-10-04T10:58:56.119Z,14.50
2017-10-04T11:01:23.597Z,14.50
2017-10-04T11:03:52.568Z,14.50
2017-10-04T11:06:20.037Z,14.50
2017-10-04T11:08:47.502Z,14.70
2017-10-04T11:11:15.752Z,14.80
2017-10-04T11:13:43.211Z,14.70
2017-10-04T11:16:10.668Z,14.70
2017-10-04T11:18:38.147Z,14.80
2017-10-04T11:21:05.600Z,14.80
2017-10-04T11:23:33.125Z,15.00
2017-10-04T11:26:00.604Z,15.10
2017-10-04T11:28:28.078Z,15.20
2017-10-04T11:30:56.301Z,15.10
2017-10-04T11:33:23.780Z,15.10
2017-10-04T11:35:51.271Z,15.20
2017-10-04T11:38:19.502Z,15.10
2017-10-04T11:40:46.980Z,15.10
2017-10-04T11:43:15.224Z,14.90
2017-10-04T11:45:42.700Z,14.90
2017-10-04T11:48:10.361Z,14.80
2017-10-04T11:50:37.832Z,14.80
2017-10-04T11:53:05.301Z,14.80
2017-10-04T11:55:32.801Z,14.70
2017-10-04T11:58:00.510Z,14.70
2017-10-04T12:00:27.985Z,14.80
2017-10-04T12:02:56.228Z,14.70
2017-10-04T12:05:23.683Z,14.70
2017-10-04T12:07:51.805Z,15.00
2017-10-04T12:10:20.057Z,15.40
2017-10-04T12:12:47.526Z,15.30
2017-10-04T12:15:15.754Z,15.30
2017-10-04T12:17:43.233Z,15.30
2017-10-04T12:20:10.706Z,15.40
2017-10-04T12:22:38.934Z,15.40
2017-10-04T12:25:06.564Z,15.40
2017-10-04T12:27:34.780Z,15.40
2017-10-04T12:30:02.265Z,15.40
2017-10-04T12:32:29.721Z,15.30
2017-10-04T12:34:57.180Z,15.20
2017-10-04T12:37:24.741Z,15.10
2017-10-04T12:39:52.205Z,15.00
2017-10-04T12:42:21.307Z,15.00
2017-10-04T12:44:49.534Z,14.90
2017-10-04T12:47:17.008Z,14.90
2017-10-04T12:49:44.496Z,14.90
2017-10-04T12:52:12.737Z,14.90
2017-10-04T12:54:40.264Z,14.90
2017-10-04T12:57:07.748Z,14.90
2017-10-04T12:59:35.214Z,14.90
2017-10-04T13:02:03.437Z,14.90
2017-10-04T13:04:30.944Z,14.90
2017-10-04T13:06:58.621Z,14.90
2017-10-04T13:09:28.253Z,14.90
2017-10-04T13:11:56.481Z,15.00
2017-10-04T13:14:23.971Z,14.90
2017-10-04T13:16:51.579Z,14.90
2017-10-04T13:19:19.045Z,15.00
2017-10-04T13:21:46.538Z,15.00
2017-10-04T13:24:14.030Z,15.00
2017-10-04T13:26:41.505Z,15.00
2017-10-04T13:29:08.974Z,15.00
2017-10-04T13:31:36.457Z,14.90
2017-10-04T13:34:03.928Z,14.90
2017-10-04T13:36:31.509Z,14.90
2017-10-04T13:38:59.104Z,14.90
2017-10-04T13:41:26.600Z,15.00
2017-10-04T13:43:54.765Z,14.90
2017-10-04T13:46:23.230Z,14.90
2017-10-04T13:48:50.696Z,14.80
2017-10-04T13:51:18.494Z,14.90
2017-10-04T13:53:55.872Z,14.90
2017-10-04T13:56:25.565Z,14.80
2017-10-04T13:58:53.050Z,14.70
2017-10-04T14:01:21.538Z,14.80
2017-10-04T14:03:49.495Z,14.70
2017-10-04T14:06:18.482Z,14.70
2017-10-04T14:08:46.407Z,14.70
2017-10-04T14:11:14.979Z,14.70
2017-10-04T14:13:43.485Z,14.80
2017-10-04T14:16:11.499Z,14.80
2017-10-04T14:18:39.341Z,14.80
2017-10-04T14:21:06.889Z,14.80
2017-10-04T14:23:34.478Z,14.80
2017-10-04T14:26:02.915Z,14.80
2017-10-04T14:28:32.395Z,14.70
2017-10-04T14:31:00.872Z,14.70
2017-10-04T14:33:28.351Z,14.70
2017-10-04T14:35:55.820Z,14.70
2017-10-04T14:38:23.480Z,14.60
2017-10-04T14:40:52.664Z,14.60
2017-10-04T14:43:20.134Z,14.60
2017-10-04T14:45:48.881Z,14.50
2017-10-04T14:48:16.591Z,14.50
2017-10-04T14:50:44.831Z,14.50
2017-10-04T14:53:12.288Z,14.50
2017-10-04T14:55:40.250Z,14.40
2017-10-04T14:58:08.313Z,14.40
2017-10-04T15:00:36.489Z,14.40
2017-10-04T15:03:04.132Z,14.40
2017-10-04T15:05:31.872Z,14.50
2017-10-04T15:08:00.625Z,14.40
2017-10-04T15:10:28.116Z,14.40
2017-10-04T15:12:56.756Z,14.40
2017-10-04T15:15:28.791Z,14.40
2017-10-04T15:17:56.267Z,14.40
2017-10-04T15:20:23.749Z,14.40
2017-10-04T15:22:51.552Z,14.40
2017-10-04T15:25:20.269Z,14.40
2017-10-04T15:27:47.921Z,14.40
2017-10-04T15:30:15.397Z,14.30
2017-10-04T15:32:43.030Z,14.30
2017-10-04T15:35:10.676Z,14.30
2017-10-04T15:37:39.214Z,14.30
2017-10-04T15:40:06.862Z,14.30
2017-10-04T15:42:34.351Z,14.30
2017-10-04T15:45:02.209Z,14.30
2017-10-04T15:47:30.472Z,14.30
2017-10-04T15:49:57.949Z,14.40
2017-10-04T15:52:25.900Z,14.30
2017-10-04T15:54:53.378Z,14.30
2017-10-04T15:57:20.844Z,14.30
2017-10-04T15:59:49.397Z,14.30
2017-10-04T16:02:16.998Z,14.20
2017-10-04T16:04:45.902Z,14.20
2017-10-04T16:07:13.602Z,14.20
2017-10-04T16:09:41.449Z,14.20
2017-10-04T16:12:09.072Z,14.20
2017-10-04T16:14:37.527Z,14.20
2017-10-04T16:17:05.057Z,14.10
2017-10-04T16:19:32.542Z,14.10
2017-10-04T16:22:00.093Z,14.10
2017-10-04T16:24:27.879Z,14.10
2017-10-04T16:26:55.350Z,14.10
2017-10-04T16:29:24.408Z,14.10
2017-10-04T16:31:52.077Z,14.10
2017-10-04T16:34:25.752Z,14.10
2017-10-04T16:36:53.853Z,14.10
2017-10-04T16:39:22.288Z,14.10
2017-10-04T16:41:49.751Z,14.10
2017-10-04T16:44:17.449Z,14.10
2017-10-04T16:46:44.941Z,14.10
2017-10-04T16:49:13.218Z,14.10
2017-10-04T16:51:41.468Z,14.10
2017-10-04T16:54:08.938Z,14.10
2017-10-04T16:56:37.218Z,14.10
2017-10-04T16:59:05.533Z,14.10
2017-10-04T17:01:33.013Z,14.10
2017-10-04T17:04:00.479Z,14.10
2017-10-04T17:06:28.035Z,14.10
2017-10-04T17:08:55.644Z,14.10
2017-10-04T17:11:23.235Z,14.10
2017-10-04T17:13:50.719Z,14.10
2017-10-04T17:16:18.204Z,14.10
2017-10-04T17:18:46.464Z,14.00
2017-10-04T17:21:13.929Z,14.00
2017-10-04T17:23:42.174Z,14.00
2017-10-04T17:26:09.651Z,14.00
2017-10-04T17:28:37.136Z,14.00
2017-10-04T17:31:04.597Z,14.00
2017-10-04T17:33:32.847Z,14.00
2017-10-04T17:36:01.102Z,14.00
2017-10-04T17:38:29.162Z,13.90
2017-10-04T17:40:56.649Z,13.90
2017-10-04T17:43:24.117Z,13.90
2017-10-04T17:45:52.478Z,13.90
2017-10-04T17:48:19.958Z,13.80
2017-10-04T17:50:48.196Z,13.80
2017-10-04T17:53:15.704Z,13.80
2017-10-04T17:55:43.185Z,13.90
2017-10-04T17:58:10.729Z,13.80
2017-10-04T18:00:38.189Z,13.80
2017-10-04T18:03:05.681Z,13.80
2017-10-04T18:05:33.279Z,13.80
2017-10-04T18:08:01.534Z,13.70
2017-10-04T18:10:28.988Z,13.70
2017-10-04T18:12:57.237Z,13.70
2017-10-04T18:15:24.713Z,13.70
2017-10-04T18:17:58.545Z,13.70
2017-10-04T18:20:32.469Z,13.70
2017-10-04T18:23:04.868Z,13.70
2017-10-04T18:25:34.171Z,13.70
2017-10-04T18:28:01.973Z,13.70
2017-10-04T18:30:29.506Z,13.80
2017-10-04T18:32:57.686Z,13.80
2017-10-04T18:35:25.180Z,13.80
2017-10-04T18:37:53.543Z,13.80
2017-10-04T18:40:21.395Z,13.80
2017-10-04T18:42:48.995Z,13.90
2017-10-04T18:45:16.495Z,13.90
2017-10-04T18:47:43.985Z,13.80
2017-10-04T18:50:11.448Z,13.90
2017-10-04T18:52:39.702Z,13.90
2017-10-04T18:55:07.177Z,13.90
2017-10-04T18:57:35.433Z,13.90
2017-10-04T19:00:02.922Z,13.90
2017-10-04T19:02:31.257Z,13.90
2017-10-04T19:04:58.729Z,13.90
2017-10-04T19:07:26.957Z,13.90
2017-10-04T19:09:54.454Z,13.90
2017-10-04T19:12:21.917Z,13.90
2017-10-04T19:14:49.465Z,13.80
2017-10-04T19:17:17.050Z,13.80
2017-10-04T19:19:44.694Z,13.80
2017-10-04T19:22:12.322Z,13.80
2017-10-04T19:24:39.801Z,13.80
2017-10-04T19:27:07.408Z,13.80
2017-10-04T19:29:35.658Z,13.80
2017-10-04T19:32:03.154Z,13.80
2017-10-04T19:34:30.638Z,13.80
2017-10-04T19:36:58.105Z,13.80
2017-10-04T19:39:27.117Z,13.80
2017-10-04T19:41:54.585Z,13.80
2017-10-04T19:44:31.748Z,13.80
2017-10-04T19:47:00.264Z,13.80
2017-10-04T19:49:28.094Z,13.80
2017-10-04T19:51:55.694Z,13.80
2017-10-04T19:54:23.924Z,13.80
2017-10-04T19:56:51.422Z,13.80
2017-10-04T19:59:20.098Z,13.80
2017-10-04T20:01:48.354Z,13.80
2017-10-04T20:04:15.971Z,13.80
2017-10-04T20:06:43.458Z,13.80
2017-10-04T20:09:11.259Z,13.80
2017-10-04T20:11:38.764Z,13.90
2017-10-04T20:14:06.361Z,13.90
2017-10-04T20:16:33.846Z,13.90
2017-10-04T20:19:01.618Z,13.90
2017-10-04T20:21:29.126Z,13.90
2017-10-04T20:23:56.649Z,13.90
2017-10-04T20:26:24.743Z,13.80
2017-10-04T20:28:52.292Z,13.80
2017-10-04T20:31:19.865Z,13.90
2017-10-04T20:33:47.356Z,13.90
2017-10-04T20:36:15.605Z,13.90
2017-10-04T20:38:43.088Z,13.80
2017-10-04T20:41:11.368Z,13.90
2017-10-04T20:43:39.735Z,13.90
2017-10-04T20:46:07.990Z,13.90
2017-10-04T20:48:36.252Z,13.90
2017-10-04T20:51:03.739Z,13.90
2017-10-04T20:53:32.115Z,13.80
2017-10-04T20:55:59.571Z,13.80
2017-10-04T20:58:27.823Z,13.80
2017-10-04T21:00:55.411Z,13.80
2017-10-04T21:03:23.665Z,13.80
2017-10-04T21:05:51.137Z,13.80
2017-10-04T21:08:18.625Z,13.80
2017-10-04T21:10:46.304Z,13.80
2017-10-04T21:13:13.818Z,13.80
2017-10-04T21:15:42.058Z,13.80
2017-10-04T21:18:09.537Z,13.80
2017-10-04T21:20:37.021Z,13.80
2017-10-04T21:23:05.270Z,13.80
2017-10-04T21:25:34.264Z,13.70
2017-10-04T21:28:01.947Z,13.80
2017-10-04T21:30:30.362Z,13.70
2017-10-04T21:32:58.174Z,13.70
2017-10-04T21:35:25.660Z,13.70
2017-10-04T21:37:53.932Z,13.70
2017-10-04T21:40:21.409Z,13.70
2017-10-04T21:42:48.874Z,13.70
2017-10-04T21:45:16.342Z,13.70
2017-10-04T21:47:43.826Z,13.70
2017-10-04T21:50:11.289Z,13.70
2017-10-04T21:52:39.553Z,13.60
2017-10-04T21:55:07.031Z,13.60
2017-10-04T21:57:35.345Z,13.60
2017-10-04T22:00:02.810Z,13.60
2017-10-04T22:02:30.262Z,13.60
2017-10-04T22:04:57.720Z,13.60
2017-10-04T22:07:25.196Z,13.60
2017-10-04T22:09:52.741Z,13.60
2017-10-04T22:12:20.222Z,13.60
2017-10-04T22:14:47.699Z,13.60
2017-10-04T22:17:16.029Z,13.60
2017-10-04T22:19:43.489Z,13.60
2017-10-04T22:22:10.963Z,13.60
2017-10-04T22:24:38.429Z,13.60
2017-10-04T22:27:05.977Z,13.50
2017-10-04T22:29:33.464Z,13.50
2017-10-04T22:32:00.929Z,13.50
2017-10-04T22:34:29.240Z,13.50
2017-10-04T22:36:57.318Z,13.50
2017-10-04T22:39:24.776Z,13.50
2017-10-04T22:41:52.436Z,13.50
2017-10-04T22:44:19.931Z,13.50
2017-10-04T22:46:47.650Z,13.50
2017-10-04T22:49:15.144Z,13.50
2017-10-04T22:51:42.621Z,13.50
2017-10-04T22:54:10.987Z,13.50
2017-10-04T22:56:38.462Z,13.40
2017-10-04T22:59:06.689Z,13.40
2017-10-04T23:01:34.152Z,13.40
2017-10-04T23:04:01.690Z,13.40
2017-10-04T23:06:29.292Z,13.30
2017-10-04T23:08:56.876Z,13.30
2017-10-04T23:11:25.118Z,13.20
2017-10-04T23:13:52.586Z,13.20
2017-10-04T23:16:20.833Z,13.20
2017-10-04T23:18:48.289Z,13.20
2017-10-04T23:21:15.877Z,13.10
2017-10-04T23:23:43.340Z,13.20
2017-10-04T23:26:11.576Z,13.20
2017-10-04T23:28:39.045Z,13.20
2017-10-04T23:31:06.529Z,13.20
2017-10-04T23:33:33.997Z,13.20
2017-10-04T23:36:02.225Z,13.20
2017-10-04T23:38:29.810Z,13.20
2017-10-04T23:40:57.463Z,13.20
2017-10-04T23:43:24.998Z,13.20
2017-10-04T23:45:52.486Z,13.30
2017-10-04T23:48:19.973Z,13.30
2017-10-04T23:50:48.213Z,13.30
2017-10-04T23:53:15.671Z,13.30
2017-10-04T23:55:43.140Z,13.30
2017-10-04T23:58:10.596Z,13.30
